createdAt,value
2018-09-04T00:00:57.222Z,999.89
2018-09-04T00:01:55.832Z,999.85
2018-09-04T00:02:54.269Z,999.85
2018-09-04T00:03:53.866Z,999.82
2018-09-04T00:05:13.155Z,999.82
2018-09-04T00:06:07.488Z,999.85
2018-09-04T00:07:09.765Z,999.77
2018-09-04T00:08:07.995Z,999.83
2018-09-04T00:09:19.124Z,999.8
2018-09-04T00:10:23.057Z,999.92
2018-09-04T00:11:24.015Z,999.88
2018-09-04T00:12:22.085Z,999.83
2018-09-04T00:13:21.244Z,999.88
2018-09-04T00:14:28.061Z,999.85
2018-09-04T00:15:36.897Z,999.85
2018-09-04T00:17:02.195Z,999.89
2018-09-04T00:18:02.804Z,999.86
2018-09-04T00:19:01.419Z,999.88
2018-09-04T00:19:59.585Z,999.89
2018-09-04T00:20:59.345Z,999.77
2018-09-04T00:22:00.987Z,999.85
2018-09-04T00:22:57.347Z,999.82
2018-09-04T00:23:58.813Z,999.76
2018-09-04T00:24:54.143Z,999.79
2018-09-04T00:25:57.778Z,999.76
2018-09-04T00:26:56.585Z,999.72
2018-09-04T00:27:53.493Z,999.76
2018-09-04T00:29:09.392Z,999.75
2018-09-04T00:30:09.688Z,999.7
2018-09-04T00:31:09.850Z,999.75
2018-09-04T00:32:11.772Z,999.69
2018-09-04T00:33:09.674Z,999.72
2018-09-04T00:34:11.275Z,999.72
2018-09-04T00:35:12.422Z,999.7
2018-09-04T00:36:10.700Z,999.69
2018-09-04T00:37:14.714Z,999.69
2018-09-04T00:38:13.742Z,999.76
2018-09-04T00:39:13.204Z,999.7
2018-09-04T00:40:12.131Z,999.67
2018-09-04T00:41:10.977Z,999.65
2018-09-04T00:42:26.269Z,999.64
2018-09-04T00:43:20.765Z,999.59
2018-09-04T00:44:19.314Z,999.61
2018-09-04T00:45:17.463Z,999.62
2018-09-04T00:46:15.337Z,999.64
2018-09-04T00:47:13.998Z,999.65
2018-09-04T00:48:18.183Z,999.59
2018-09-04T00:49:21.670Z,999.62
2018-09-04T00:50:20.757Z,999.59
2018-09-04T00:51:18.063Z,999.58
2018-09-04T00:52:15.943Z,999.59
2018-09-04T00:53:28.783Z,999.56
2018-09-04T00:54:23.111Z,999.64
2018-09-04T00:55:21.589Z,999.59
2018-09-04T00:56:20.302Z,999.55
2018-09-04T00:57:21.107Z,999.56
2018-09-04T00:58:19.891Z,999.55
2018-09-04T00:59:18.474Z,999.55
2018-09-04T01:00:17.098Z,999.59
2018-09-04T01:01:17.309Z,999.58
2018-09-04T01:02:15.163Z,999.59
2018-09-04T01:03:27.836Z,999.53
2018-09-04T01:04:24.513Z,999.58
2018-09-04T01:05:23.109Z,999.65
2018-09-04T01:06:20.666Z,999.65
2018-09-04T01:07:28.645Z,999.67
2018-09-04T01:08:29.844Z,999.64
2018-09-04T01:09:33.950Z,999.62
2018-09-04T01:10:31.393Z,999.67
2018-09-04T01:11:35.689Z,999.69
2018-09-04T01:12:33.618Z,999.68
2018-09-04T01:13:39.613Z,999.72
2018-09-04T01:14:51.288Z,999.65
2018-09-04T01:15:46.032Z,999.69
2018-09-04T01:16:43.997Z,999.7
2018-09-04T01:17:42.756Z,999.73
2018-09-04T01:18:41.344Z,999.69
2018-09-04T01:19:43.598Z,999.7
2018-09-04T01:20:46.408Z,999.72
2018-09-04T01:21:45.014Z,999.7
2018-09-04T01:22:43.011Z,999.69
2018-09-04T01:23:41.365Z,999.58
2018-09-04T01:24:58.372Z,999.7
2018-09-04T01:25:53.238Z,999.68
2018-09-04T01:26:50.733Z,999.59
2018-09-04T01:27:48.290Z,999.67
2018-09-04T01:28:45.684Z,999.65
2018-09-04T01:29:44.896Z,999.68
2018-09-04T01:30:44.299Z,999.62
2018-09-04T01:32:01.505Z,999.65
2018-09-04T01:33:05.990Z,999.68
2018-09-04T01:34:00.480Z,999.69
2018-09-04T01:34:59.389Z,999.7
2018-09-04T01:36:20.562Z,999.64
2018-09-04T01:37:15.376Z,999.61
2018-09-04T01:38:15.403Z,999.69
2018-09-04T01:39:13.326Z,999.68
2018-09-04T01:40:11.147Z,999.64
2018-09-04T01:41:08.680Z,999.7
2018-09-04T01:42:10.801Z,999.62
2018-09-04T01:43:11.727Z,999.72
2018-09-04T01:44:10.098Z,999.73
2018-09-04T01:45:09.214Z,999.65
2018-09-04T01:46:06.495Z,999.67
2018-09-04T01:47:01.968Z,999.61
2018-09-04T01:48:04.561Z,999.61
2018-09-04T01:49:28.141Z,999.69
2018-09-04T01:50:24.222Z,999.68
2018-09-04T01:51:22.592Z,999.69
2018-09-04T01:52:25.107Z,999.61
2018-09-04T01:53:23.744Z,999.69
2018-09-04T01:54:23.193Z,999.69
2018-09-04T01:55:21.337Z,999.67
2018-09-04T01:56:20.356Z,999.7
2018-09-04T01:57:18.726Z,999.76
2018-09-04T01:58:14.106Z,999.69
2018-09-04T01:59:28.085Z,999.76
2018-09-04T02:00:29.623Z,999.82
2018-09-04T02:01:32.387Z,999.75
2018-09-04T02:02:38.335Z,999.68
2018-09-04T02:03:36.074Z,999.76
2018-09-04T02:04:34.059Z,999.73
2018-09-04T02:05:36.152Z,999.69
2018-09-04T02:06:35.999Z,999.77
2018-09-04T02:07:34.930Z,999.64
2018-09-04T02:08:35.098Z,999.68
2018-09-04T02:09:33.167Z,999.72
2018-09-04T02:10:35.646Z,999.65
2018-09-04T02:11:47.684Z,999.67
2018-09-04T02:12:47.058Z,999.65
2018-09-04T02:13:45.172Z,999.64
2018-09-04T02:14:43.645Z,999.61
2018-09-04T02:15:41.245Z,999.62
2018-09-04T02:16:43.225Z,999.65
2018-09-04T02:17:45.395Z,999.67
2018-09-04T02:18:46.748Z,999.69
2018-09-04T02:19:46.305Z,999.68
2018-09-04T02:20:43.973Z,999.69
2018-09-04T02:21:41.767Z,999.67
2018-09-04T02:22:36.990Z,999.65
2018-09-04T02:23:36.295Z,999.68
2018-09-04T02:24:48.541Z,999.73
2018-09-04T02:26:00.480Z,999.75
2018-09-04T02:27:00.544Z,999.8
2018-09-04T02:28:00.745Z,999.69
2018-09-04T02:29:00.513Z,999.76
2018-09-04T02:29:58.433Z,999.69
2018-09-04T02:30:53.875Z,999.68
2018-09-04T02:31:58.135Z,999.64
2018-09-04T02:33:02.110Z,999.61
2018-09-04T02:34:03.750Z,999.64
2018-09-04T02:35:15.383Z,999.72
2018-09-04T02:36:10.976Z,999.65
2018-09-04T02:37:10.391Z,999.65
2018-09-04T02:38:08.770Z,999.59
2018-09-04T02:39:07.465Z,999.59
2018-09-04T02:40:06.089Z,999.61
2018-09-04T02:41:03.783Z,999.59
2018-09-04T02:42:02.660Z,999.56
2018-09-04T02:43:02.042Z,999.52
2018-09-04T02:44:00.310Z,999.58
2018-09-04T02:44:58.868Z,999.55
2018-09-04T02:45:54.536Z,999.59
2018-09-04T02:47:06.722Z,999.5
2018-09-04T02:48:07.735Z,999.52
2018-09-04T02:49:06.942Z,999.62
2018-09-04T02:50:04.932Z,999.58
2018-09-04T02:51:04.955Z,999.61
2018-09-04T02:52:03.356Z,999.5
2018-09-04T02:53:07.641Z,999.5
2018-09-04T02:54:10.802Z,999.55
2018-09-04T02:55:08.506Z,999.49
2018-09-04T02:56:10.160Z,999.5
2018-09-04T02:57:11.525Z,999.58
2018-09-04T02:58:10.568Z,999.52
2018-09-04T02:59:14.875Z,999.56
2018-09-04T03:00:14.674Z,999.56
2018-09-04T03:01:36.881Z,999.53
2018-09-04T03:02:25.028Z,999.55
2018-09-04T03:03:28.753Z,999.58
2018-09-04T03:04:28.104Z,999.53
2018-09-04T03:05:31.863Z,999.49
2018-09-04T03:06:29.990Z,999.52
2018-09-04T03:07:30.401Z,999.49
2018-09-04T03:08:26.804Z,999.53
2018-09-04T03:09:28.430Z,999.52
2018-09-04T03:10:26.269Z,999.56
2018-09-04T03:11:24.103Z,999.55
2018-09-04T03:12:24.258Z,999.53
2018-09-04T03:13:38.530Z,999.49
2018-09-04T03:14:34.092Z,999.53
2018-09-04T03:15:32.013Z,999.52
2018-09-04T03:16:29.441Z,999.49
2018-09-04T03:17:30.213Z,999.46
2018-09-04T03:18:34.501Z,999.46
2018-09-04T03:19:35.035Z,999.44
2018-09-04T03:20:33.150Z,999.46
2018-09-04T03:21:41.094Z,999.4
2018-09-04T03:22:39.678Z,999.46
2018-09-04T03:23:37.897Z,999.4
2018-09-04T03:24:35.709Z,999.47
2018-09-04T03:25:47.377Z,999.56
2018-09-04T03:26:45.927Z,999.44
2018-09-04T03:27:48.177Z,999.34
2018-09-04T03:28:48.381Z,999.33
2018-09-04T03:29:49.197Z,999.33
2018-09-04T03:30:47.438Z,999.38
2018-09-04T03:31:51.569Z,999.4
2018-09-04T03:32:49.358Z,999.44
2018-09-04T03:33:47.110Z,999.33
2018-09-04T03:34:43.229Z,999.38
2018-09-04T03:35:55.866Z,999.37
2018-09-04T03:37:01.723Z,999.41
2018-09-04T03:38:00.614Z,999.33
2018-09-04T03:38:59.010Z,999.37
2018-09-04T03:40:05.151Z,999.37
2018-09-04T03:41:03.178Z,999.35
2018-09-04T03:42:00.785Z,999.4
2018-09-04T03:42:56.154Z,999.43
2018-09-04T03:43:56.914Z,999.44
2018-09-04T03:44:58.261Z,999.35
2018-09-04T03:45:56.768Z,999.38
2018-09-04T03:46:54.214Z,999.35
2018-09-04T03:47:52.744Z,999.43
2018-09-04T03:48:51.197Z,999.41
2018-09-04T03:50:07.011Z,999.38
2018-09-04T03:51:03.164Z,999.43
2018-09-04T03:52:03.568Z,999.38
2018-09-04T03:53:08.004Z,999.4
2018-09-04T03:54:06.019Z,999.46
2018-09-04T03:55:03.977Z,999.3
2018-09-04T03:56:03.212Z,999.41
2018-09-04T03:57:06.370Z,999.37
2018-09-04T03:58:03.093Z,999.35
2018-09-04T03:59:07.886Z,999.28
2018-09-04T04:00:04.167Z,999.35
2018-09-04T04:01:07.989Z,999.44
2018-09-04T04:02:20.505Z,999.34
2018-09-04T04:03:16.510Z,999.37
2018-09-04T04:04:19.875Z,999.41
2018-09-04T04:05:16.387Z,999.37
2018-09-04T04:06:14.333Z,999.47
2018-09-04T04:07:13.395Z,999.46
2018-09-04T04:08:09.729Z,999.5
2018-09-04T04:09:10.467Z,999.44
2018-09-04T04:10:08.280Z,999.46
2018-09-04T04:11:03.213Z,999.53
2018-09-04T04:12:03.765Z,999.49
2018-09-04T04:13:03.294Z,999.47
2018-09-04T04:14:14.849Z,999.44
2018-09-04T04:15:20.907Z,999.46
2018-09-04T04:16:22.797Z,999.41
2018-09-04T04:17:30.814Z,999.37
2018-09-04T04:18:37.857Z,999.35
2018-09-04T04:19:36.829Z,999.34
2018-09-04T04:20:35.173Z,999.28
2018-09-04T04:21:36.738Z,999.41
2018-09-04T04:22:35.436Z,999.35
2018-09-04T04:23:32.832Z,999.4
2018-09-04T04:24:34.619Z,999.43
2018-09-04T04:25:34.839Z,999.38
2018-09-04T04:26:32.184Z,999.37
2018-09-04T04:27:32.851Z,999.52
2018-09-04T04:28:37.114Z,999.5
2018-09-04T04:29:49.554Z,999.52
2018-09-04T04:30:47.910Z,999.46
2018-09-04T04:31:45.993Z,999.5
2018-09-04T04:32:49.512Z,999.58
2018-09-04T04:33:54.339Z,999.58
2018-09-04T04:34:52.308Z,999.61
2018-09-04T04:35:50.114Z,999.67
2018-09-04T04:36:48.108Z,999.58
2018-09-04T04:37:48.832Z,999.56
2018-09-04T04:38:53.206Z,999.58
2018-09-04T04:39:53.831Z,999.58
2018-09-04T04:40:49.776Z,999.67
2018-09-04T04:41:49.220Z,999.53
2018-09-04T04:43:02.337Z,999.61
2018-09-04T04:43:59.301Z,999.7
2018-09-04T04:44:57.175Z,999.61
2018-09-04T04:45:55.578Z,999.61
2018-09-04T04:46:59.274Z,999.61
2018-09-04T04:48:02.646Z,999.79
2018-09-04T04:49:00.860Z,999.69
2018-09-04T04:49:59.015Z,999.75
2018-09-04T04:51:00.498Z,999.79
2018-09-04T04:51:56.261Z,999.75
2018-09-04T04:52:54.056Z,999.69
2018-09-04T04:54:00.838Z,999.7
2018-09-04T04:55:02.022Z,999.67
2018-09-04T04:56:01.267Z,999.77
2018-09-04T04:56:59.505Z,999.72
2018-09-04T04:57:59.710Z,999.62
2018-09-04T04:58:57.023Z,999.77
2018-09-04T04:59:55.937Z,999.79
2018-09-04T05:01:13.945Z,999.69
2018-09-04T05:02:12.373Z,999.62
2018-09-04T05:03:10.949Z,999.68
2018-09-04T05:04:10.756Z,999.67
2018-09-04T05:05:09.723Z,999.7
2018-09-04T05:06:09.344Z,999.73
2018-09-04T05:07:12.759Z,999.73
2018-09-04T05:08:10.792Z,999.72
2018-09-04T05:09:09.341Z,999.8
2018-09-04T05:10:07.088Z,999.79
2018-09-04T05:11:04.443Z,999.77
2018-09-04T05:12:16.711Z,999.85
2018-09-04T05:13:13.353Z,999.88
2018-09-04T05:14:13.374Z,999.83
2018-09-04T05:15:16.981Z,999.92
2018-09-04T05:16:17.635Z,999.85
2018-09-04T05:17:22.655Z,999.89
2018-09-04T05:18:22.057Z,999.92
2018-09-04T05:19:23.606Z,999.94
2018-09-04T05:20:24.081Z,999.89
2018-09-04T05:21:22.858Z,999.89
2018-09-04T05:22:21.622Z,999.86
2018-09-04T05:23:22.725Z,999.86
2018-09-04T05:24:18.389Z,999.89
2018-09-04T05:25:20.185Z,999.91
2018-09-04T05:26:35.538Z,999.86
2018-09-04T05:27:34.459Z,999.83
2018-09-04T05:28:34.325Z,999.83
2018-09-04T05:29:33.808Z,999.82
2018-09-04T05:30:30.112Z,999.83
2018-09-04T05:31:33.158Z,999.82
2018-09-04T05:32:41.604Z,999.82
2018-09-04T05:33:38.341Z,999.86
2018-09-04T05:34:42.157Z,999.82
2018-09-04T05:35:39.977Z,999.77
2018-09-04T05:36:38.703Z,999.91
2018-09-04T05:37:34.700Z,999.89
2018-09-04T05:38:40.795Z,999.82
2018-09-04T05:39:42.488Z,999.88
2018-09-04T05:40:57.254Z,999.88
2018-09-04T05:41:51.970Z,999.88
2018-09-04T05:42:53.851Z,999.89
2018-09-04T05:43:53.205Z,999.95
2018-09-04T05:45:02.636Z,999.89
2018-09-04T05:46:07.638Z,999.91
2018-09-04T05:47:11.541Z,999.98
2018-09-04T05:48:09.355Z,999.95
2018-09-04T05:49:04.417Z,999.98
2018-09-04T05:50:05.011Z,999.94
2018-09-04T05:51:06.434Z,999.97
2018-09-04T05:52:06.299Z,1000.01
2018-09-04T05:53:18.020Z,999.97
2018-09-04T05:54:14.279Z,1000
2018-09-04T05:55:12.099Z,1000.06
2018-09-04T05:56:12.937Z,1000.06
2018-09-04T05:57:10.825Z,1000.03
2018-09-04T05:58:05.736Z,999.97
2018-09-04T05:59:07.976Z,999.98
2018-09-04T06:00:06.837Z,999.97
2018-09-04T06:01:02.469Z,1000.06
2018-09-04T06:02:03.354Z,999.97
2018-09-04T06:02:59.137Z,1000.07
2018-09-04T06:04:05.844Z,1000.09
2018-09-04T06:05:04.187Z,1000.09
2018-09-04T06:06:06.548Z,1000.06
2018-09-04T06:07:12.584Z,1000.07
2018-09-04T06:08:11.996Z,1000.1
2018-09-04T06:09:18.003Z,1000.1
2018-09-04T06:10:16.238Z,1000.17
2018-09-04T06:11:17.973Z,1000.16
2018-09-04T06:12:21.290Z,1000.19
2018-09-04T06:13:32.024Z,1000.13
2018-09-04T06:14:34.817Z,1000.12
2018-09-04T06:15:32.585Z,1000.19
2018-09-04T06:16:31.689Z,1000.13
2018-09-04T06:17:33.900Z,1000.15
2018-09-04T06:18:47.094Z,1000.22
2018-09-04T06:19:46.000Z,1000.16
2018-09-04T06:20:45.700Z,1000.29
2018-09-04T06:21:47.353Z,1000.34
2018-09-04T06:22:54.280Z,1000.26
2018-09-04T06:23:49.799Z,1000.23
2018-09-04T06:25:03.838Z,1000.28
2018-09-04T06:26:03.463Z,1000.26
2018-09-04T06:27:03.282Z,1000.23
2018-09-04T06:28:05.652Z,1000.23
2018-09-04T06:29:03.938Z,1000.19
2018-09-04T06:30:05.770Z,1000.17
2018-09-04T06:31:03.555Z,1000.2
2018-09-04T06:32:03.285Z,1000.19
2018-09-04T06:33:04.338Z,1000.19
2018-09-04T06:34:00.153Z,1000.17
2018-09-04T06:35:15.038Z,1000.22
2018-09-04T06:36:10.946Z,1000.2
2018-09-04T06:37:19.593Z,1000.2
2018-09-04T06:38:19.787Z,1000.23
2018-09-04T06:39:22.874Z,1000.22
2018-09-04T06:40:22.554Z,1000.12
2018-09-04T06:41:21.753Z,1000.17
2018-09-04T06:42:19.520Z,1000.12
2018-09-04T06:43:15.103Z,1000.1
2018-09-04T06:44:17.744Z,1000.13
2018-09-04T06:45:19.969Z,1000.16
2018-09-04T06:46:18.812Z,1000.15
2018-09-04T06:47:17.413Z,1000.15
2018-09-04T06:48:19.861Z,1000.17
2018-09-04T06:49:21.127Z,1000.17
2018-09-04T06:50:22.890Z,1000.16
2018-09-04T06:51:26.226Z,1000.22
2018-09-04T06:52:24.304Z,1000.25
2018-09-04T06:53:28.730Z,1000.23
2018-09-04T06:54:23.582Z,1000.28
2018-09-04T06:55:36.040Z,1000.26
2018-09-04T06:56:32.653Z,1000.29
2018-09-04T06:57:31.676Z,1000.26
2018-09-04T06:58:29.528Z,1000.25
2018-09-04T06:59:31.082Z,1000.2
2018-09-04T07:00:29.175Z,1000.2
2018-09-04T07:01:31.794Z,1000.16
2018-09-04T07:02:32.790Z,1000.26
2018-09-04T07:03:32.594Z,1000.26
2018-09-04T07:04:39.992Z,1000.26
2018-09-04T07:05:53.027Z,1000.26
2018-09-04T07:06:47.825Z,1000.28
2018-09-04T07:07:46.531Z,1000.28
2018-09-04T07:08:47.909Z,1000.28
2018-09-04T07:09:46.939Z,1000.19
2018-09-04T07:10:44.666Z,1000.22
2018-09-04T07:11:42.708Z,1000.25
2018-09-04T07:12:40.469Z,1000.25
2018-09-04T07:13:40.568Z,1000.25
2018-09-04T07:14:40.620Z,1000.25
2018-09-04T07:15:43.763Z,1000.28
2018-09-04T07:16:43.855Z,1000.34
2018-09-04T07:17:55.656Z,1000.34
2018-09-04T07:18:56.348Z,1000.37
2018-09-04T07:19:58.694Z,1000.35
2018-09-04T07:20:56.712Z,1000.38
2018-09-04T07:22:04.535Z,1000.41
2018-09-04T07:23:07.175Z,1000.41
2018-09-04T07:24:05.341Z,1000.41
2018-09-04T07:25:06.545Z,1000.35
2018-09-04T07:26:01.846Z,1000.38
2018-09-04T07:26:59.823Z,1000.38
2018-09-04T07:28:00.696Z,1000.37
2018-09-04T07:29:04.213Z,1000.35
2018-09-04T07:30:33.902Z,1000.46
2018-09-04T07:31:23.147Z,1000.28
2018-09-04T07:32:22.442Z,1000.4
2018-09-04T07:33:25.989Z,1000.46
2018-09-04T07:34:25.306Z,1000.35
2018-09-04T07:35:25.394Z,1000.25
2018-09-04T07:36:23.664Z,1000.31
2018-09-04T07:37:21.744Z,1000.4
2018-09-04T07:38:25.456Z,1000.28
2018-09-04T07:39:26.747Z,1000.4
2018-09-04T07:40:24.626Z,1000.38
2018-09-04T07:41:26.830Z,1000.41
2018-09-04T07:42:36.472Z,1000.41
2018-09-04T07:43:33.557Z,1000.43
2018-09-04T07:44:32.871Z,1000.46
2018-09-04T07:45:31.107Z,1000.46
2018-09-04T07:46:30.860Z,1000.47
2018-09-04T07:47:31.923Z,1000.4
2018-09-04T07:48:29.711Z,1000.43
2018-09-04T07:49:26.504Z,1000.38
2018-09-04T07:50:31.727Z,1000.4
2018-09-04T07:51:41.621Z,1000.44
2018-09-04T07:52:54.571Z,1000.44
2018-09-04T07:53:52.138Z,1000.38
2018-09-04T07:54:51.415Z,1000.35
2018-09-04T07:56:00.140Z,1000.41
2018-09-04T07:57:00.483Z,1000.44
2018-09-04T07:57:59.690Z,1000.43
2018-09-04T07:59:05.885Z,1000.41
2018-09-04T08:00:00.849Z,1000.38
2018-09-04T08:01:11.861Z,1000.35
2018-09-04T08:02:13.330Z,1000.43
2018-09-04T08:03:16.253Z,1000.34
2018-09-04T08:04:11.081Z,1000.35
2018-09-04T08:05:20.132Z,1000.43
2018-09-04T08:06:18.459Z,1000.4
2018-09-04T08:07:21.118Z,1000.4
2018-09-04T08:08:18.955Z,1000.38
2018-09-04T08:09:21.216Z,1000.38
2018-09-04T08:10:24.837Z,1000.29
2018-09-04T08:11:27.433Z,1000.44
2018-09-04T08:12:37.551Z,1000.34
2018-09-04T08:13:36.205Z,1000.43
2018-09-04T08:14:37.132Z,1000.37
2018-09-04T08:15:37.895Z,1000.44
2018-09-04T08:16:36.472Z,1000.4
2018-09-04T08:17:32.938Z,1000.38
2018-09-04T08:18:49.392Z,1000.29
2018-09-04T08:19:46.219Z,1000.29
2018-09-04T08:20:44.675Z,1000.37
2018-09-04T08:21:42.635Z,1000.4
2018-09-04T08:22:43.529Z,1000.4
2018-09-04T08:23:45.454Z,1000.32
2018-09-04T08:24:43.244Z,1000.44
2018-09-04T08:25:42.895Z,1000.38
2018-09-04T08:26:41.225Z,1000.34
2018-09-04T08:27:39.892Z,1000.5
2018-09-04T08:28:38.177Z,1000.38
2018-09-04T08:29:34.201Z,1000.44
2018-09-04T08:30:46.081Z,1000.4
2018-09-04T08:31:41.044Z,1000.43
2018-09-04T08:32:40.610Z,1000.4
2018-09-04T08:33:38.303Z,1000.4
2018-09-04T08:34:38.635Z,1000.37
2018-09-04T08:35:42.554Z,1000.46
2018-09-04T08:36:40.727Z,1000.55
2018-09-04T08:37:38.687Z,1000.5
2018-09-04T08:38:35.429Z,1000.41
2018-09-04T08:39:36.912Z,1000.5
2018-09-04T08:40:35.282Z,1000.53
2018-09-04T08:41:31.747Z,1000.5
2018-09-04T08:42:32.914Z,1000.53
2018-09-04T08:43:33.683Z,1000.52
2018-09-04T08:44:48.280Z,1000.5
2018-09-04T08:45:43.600Z,1000.52
2018-09-04T08:46:42.137Z,1000.55
2018-09-04T08:47:42.599Z,1000.59
2018-09-04T08:48:44.635Z,1000.5
2018-09-04T08:49:44.433Z,1000.44
2018-09-04T08:50:42.132Z,1000.47
2018-09-04T08:51:39.732Z,1000.43
2018-09-04T08:52:37.690Z,1000.46
2018-09-04T08:53:37.717Z,1000.5
2018-09-04T08:54:32.188Z,1000.43
2018-09-04T08:55:51.103Z,1000.49
2018-09-04T08:56:46.874Z,1000.47
2018-09-04T08:57:45.356Z,1000.46
2018-09-04T08:58:43.417Z,1000.46
2018-09-04T08:59:42.320Z,1000.4
2018-09-04T09:00:40.885Z,1000.38
2018-09-04T09:01:38.899Z,1000.46
2018-09-04T09:02:43.276Z,1000.49
2018-09-04T09:03:48.223Z,1000.52
2018-09-04T09:04:49.050Z,1000.52
2018-09-04T09:05:55.489Z,1000.52
2018-09-04T09:06:55.077Z,1000.41
2018-09-04T09:08:13.780Z,1000.46
2018-09-04T09:09:13.278Z,1000.37
2018-09-04T09:10:11.358Z,1000.38
2018-09-04T09:11:05.972Z,1000.41
2018-09-04T09:12:06.541Z,1000.41
2018-09-04T09:13:04.112Z,1000.32
2018-09-04T09:14:04.471Z,1000.35
2018-09-04T09:15:04.268Z,1000.29
2018-09-04T09:16:02.053Z,1000.43
2018-09-04T09:17:00.054Z,1000.37
2018-09-04T09:17:59.463Z,1000.38
2018-09-04T09:18:59.809Z,1000.4
2018-09-04T09:19:54.713Z,1000.26
2018-09-04T09:20:56.173Z,1000.4
2018-09-04T09:21:56.022Z,1000.32
2018-09-04T09:22:57.938Z,1000.35
2018-09-04T09:23:55.229Z,1000.38
2018-09-04T09:24:57.592Z,1000.34
2018-09-04T09:26:08.154Z,1000.35
2018-09-04T09:27:06.015Z,1000.34
2018-09-04T09:28:04.489Z,1000.37
2018-09-04T09:29:02.571Z,1000.23
2018-09-04T09:30:02.205Z,1000.22
2018-09-04T09:31:01.662Z,1000.25
2018-09-04T09:31:59.798Z,1000.26
2018-09-04T09:33:03.346Z,1000.28
2018-09-04T09:34:01.145Z,1000.26
2018-09-04T09:35:03.188Z,1000.32
2018-09-04T09:36:01.879Z,1000.31
2018-09-04T09:37:16.936Z,1000.34
2018-09-04T09:38:16.367Z,1000.37
2018-09-04T09:39:14.095Z,1000.4
2018-09-04T09:40:12.659Z,1000.38
2018-09-04T09:41:14.998Z,1000.41
2018-09-04T09:42:12.989Z,1000.46
2018-09-04T09:43:19.867Z,1000.5
2018-09-04T09:44:16.411Z,1000.41
2018-09-04T09:45:16.716Z,1000.41
2018-09-04T09:46:12.132Z,1000.4
2018-09-04T09:47:15.582Z,1000.49
2018-09-04T09:48:28.907Z,1000.43
2018-09-04T09:49:23.146Z,1000.46
2018-09-04T09:50:21.861Z,1000.4
2018-09-04T09:51:24.424Z,1000.35
2018-09-04T09:52:22.594Z,1000.35
2018-09-04T09:53:21.495Z,1000.41
2018-09-04T09:54:19.033Z,1000.34
2018-09-04T09:55:17.680Z,1000.38
2018-09-04T09:56:15.346Z,1000.43
2018-09-04T09:57:12.200Z,1000.47
2018-09-04T09:58:24.006Z,1000.37
2018-09-04T09:59:27.024Z,1000.37
2018-09-04T10:00:24.828Z,1000.37
2018-09-04T10:01:24.582Z,1000.41
2018-09-04T10:02:23.967Z,1000.31
2018-09-04T10:03:23.224Z,1000.32
2018-09-04T10:04:23.812Z,1000.31
2018-09-04T10:05:23.983Z,1000.4
2018-09-04T10:06:27.150Z,1000.37
2018-09-04T10:07:24.965Z,1000.28
2018-09-04T10:08:21.771Z,1000.35
2018-09-04T10:09:40.429Z,1000.37
2018-09-04T10:10:35.594Z,1000.35
2018-09-04T10:11:33.717Z,1000.38
2018-09-04T10:12:31.900Z,1000.37
2018-09-04T10:13:29.948Z,1000.29
2018-09-04T10:14:32.212Z,1000.31
2018-09-04T10:15:30.610Z,1000.38
2018-09-04T10:16:29.368Z,1000.35
2018-09-04T10:17:31.022Z,1000.32
2018-09-04T10:18:30.222Z,1000.34
2018-09-04T10:19:31.232Z,1000.34
2018-09-04T10:20:31.041Z,1000.31
2018-09-04T10:21:30.064Z,1000.4
2018-09-04T10:22:25.410Z,1000.29
2018-09-04T10:23:24.972Z,1000.22
2018-09-04T10:24:22.572Z,1000.29
2018-09-04T10:25:39.565Z,1000.29
2018-09-04T10:26:34.328Z,1000.25
2018-09-04T10:27:36.428Z,1000.25
2018-09-04T10:28:38.343Z,1000.19
2018-09-04T10:29:36.251Z,1000.25
2018-09-04T10:30:35.368Z,1000.22
2018-09-04T10:31:33.220Z,1000.21
2018-09-04T10:32:32.056Z,1000.22
2018-09-04T10:33:33.173Z,1000.21
2018-09-04T10:34:31.729Z,1000.21
2018-09-04T10:35:33.448Z,1000.24
2018-09-04T10:36:33.132Z,1000.15
2018-09-04T10:37:53.960Z,1000.13
2018-09-04T10:38:49.011Z,1000.15
2018-09-04T10:39:46.915Z,1000.22
2018-09-04T10:40:44.523Z,1000.18
2018-09-04T10:41:47.455Z,1000.15
2018-09-04T10:42:49.418Z,1000.22
2018-09-04T10:43:47.951Z,1000.15
2018-09-04T10:44:46.144Z,1000.06
2018-09-04T10:45:47.954Z,1000.1
2018-09-04T10:46:43.306Z,1000.21
2018-09-04T10:47:47.685Z,1000.21
2018-09-04T10:48:45.567Z,1000.09
2018-09-04T10:49:59.859Z,1000.07
2018-09-04T10:50:55.376Z,1000.09
2018-09-04T10:51:56.771Z,1000.07
2018-09-04T10:52:59.763Z,1000.15
2018-09-04T10:54:00.035Z,1000.07
2018-09-04T10:55:03.382Z,1000.09
2018-09-04T10:56:03.312Z,1000.04
2018-09-04T10:57:10.778Z,1000.16
2018-09-04T10:58:10.533Z,1000.13
2018-09-04T10:59:09.997Z,1000.12
2018-09-04T11:00:07.828Z,1000.07
2018-09-04T11:01:11.628Z,1000.07
2018-09-04T11:01:34.815Z,1000.06
2018-09-04T11:02:34.544Z,1000.1
2018-09-04T11:03:46.218Z,1000.12
2018-09-04T11:04:42.079Z,1000.01
2018-09-04T11:05:41.761Z,1000.06
2018-09-04T11:06:40.017Z,1000.07
2018-09-04T11:07:37.974Z,1000.06
2018-09-04T11:08:39.508Z,999.98
2018-09-04T11:09:35.618Z,1000.04
2018-09-04T11:10:36.511Z,1000.1
2018-09-04T11:11:35.952Z,1000.09
2018-09-04T11:12:36.007Z,1000.16
2018-09-04T11:13:33.468Z,1000.16
2018-09-04T11:14:33.569Z,1000.16
2018-09-04T11:15:33.212Z,1000.1
2018-09-04T11:16:27.619Z,1000.07
2018-09-04T11:17:33.007Z,1000.07
2018-09-04T11:18:45.933Z,1000.06
2018-09-04T11:19:42.156Z,1000.07
2018-09-04T11:20:40.445Z,1000.1
2018-09-04T11:21:39.880Z,1000.07
2018-09-04T11:22:37.580Z,1000.04
2018-09-04T11:23:35.516Z,1000.09
2018-09-04T11:24:33.246Z,1000.09
2018-09-04T11:25:32.695Z,1000.13
2018-09-04T11:26:30.383Z,1000.12
2018-09-04T11:27:32.308Z,1000.13
2018-09-04T11:28:45.803Z,1000.09
2018-09-04T11:29:43.064Z,1000.03
2018-09-04T11:30:41.266Z,1000.1
2018-09-04T11:31:46.538Z,1000.06
2018-09-04T11:32:49.468Z,1000.07
2018-09-04T11:33:53.327Z,1000.01
2018-09-04T11:34:57.528Z,1000.01
2018-09-04T11:35:56.749Z,1000.03
2018-09-04T11:36:57.151Z,1000.06
2018-09-04T11:37:55.341Z,1000.09
2018-09-04T11:38:55.775Z,1000.07
2018-09-04T11:39:52.241Z,1000.04
2018-09-04T11:40:49.836Z,1000.01
2018-09-04T11:42:01.578Z,1000.06
2018-09-04T11:43:01.769Z,1000.06
2018-09-04T11:43:59.747Z,999.92
2018-09-04T11:44:57.913Z,1000.03
2018-09-04T11:45:56.729Z,1000.01
2018-09-04T11:46:57.443Z,999.97
2018-09-04T11:48:02.852Z,1000
2018-09-04T11:49:01.016Z,1000.03
2018-09-04T11:50:02.264Z,999.97
2018-09-04T11:51:01.567Z,1000.01
2018-09-04T11:52:04.765Z,1000
2018-09-04T11:53:07.404Z,999.88
2018-09-04T11:54:02.908Z,1000
2018-09-04T11:55:03.937Z,999.95
2018-09-04T11:56:17.353Z,1000
2018-09-04T11:57:18.129Z,1000.1
2018-09-04T11:58:18.504Z,999.98
2018-09-04T11:59:20.602Z,1000
2018-09-04T12:00:23.217Z,1000.03
2018-09-04T12:01:21.839Z,1000.04
2018-09-04T12:02:22.026Z,999.97
2018-09-04T12:03:21.566Z,1000.03
2018-09-04T12:04:20.635Z,999.98
2018-09-04T12:05:19.108Z,1000
2018-09-04T12:06:17.308Z,999.98
2018-09-04T12:07:11.932Z,1000
2018-09-04T12:08:33.887Z,1000
2018-09-04T12:09:43.216Z,999.95
2018-09-04T12:11:00.644Z,1000.03
2018-09-04T12:11:59.722Z,999.95
2018-09-04T12:12:58.054Z,999.92
2018-09-04T12:13:53.342Z,999.98
2018-09-04T12:14:54.010Z,999.89
2018-09-04T12:15:52.312Z,1000.01
2018-09-04T12:16:52.956Z,1000
2018-09-04T12:17:52.104Z,999.95
2018-09-04T12:19:07.348Z,999.92
2018-09-04T12:20:07.930Z,1000.07
2018-09-04T12:21:05.556Z,1000
2018-09-04T12:22:08.317Z,1000.04
2018-09-04T12:23:03.038Z,1000
2018-09-04T12:24:00.863Z,999.95
2018-09-04T12:25:03.152Z,1000.06
2018-09-04T12:26:02.320Z,1000.03
2018-09-04T12:27:03.060Z,999.95
2018-09-04T12:28:01.233Z,1000
2018-09-04T12:28:59.287Z,1000.01
2018-09-04T12:30:00.754Z,999.98
2018-09-04T12:31:21.125Z,999.94
2018-09-04T12:32:17.817Z,999.97
2018-09-04T12:33:18.712Z,999.95